Skip to Main Content

Video Notice: If you see just a black screen when trying to view Live Traffic cameras, please click inside the window to get video to play. An update to certain browsers is not allowing the video to auto-play when the window opens. 

SEARCH:
Location Air RH Dwp Precip Type Wind Speed Wind Gust Direction Pavement Temperature Date/Time
Hatem Bridge US 40 E/B 60 93 58 None 6 mph 7 mph N 60 - 60 9/23/2018 7:49:00 PM
I-270 at I-370 60 99 59 Rain Calm Calm N 61 - 63 9/23/2018 7:45:00 PM
I-270 at MD-109 60 100 60 Rain Calm Calm NW 61 - 62 9/23/2018 7:45:00 PM
I-495 at American Legion Bridge 61 99 61 Rain Calm 7 mph NE 64 - 64 9/23/2018 7:45:00 PM
I-68 at Savage Mt 53 100 53 None 4 mph 8 mph SE 56 - 56 9/23/2018 7:45:00 PM
I-68 at Sideling Hill 57 100 57 None Calm Calm NE 60 - 61 9/23/2018 7:45:00 PM
I-68 at US 219 53 100 53 None 11 mph 18 mph SE 54 - 58 9/23/2018 7:45:00 PM
I-68 at WV Line 56 93 54 None Calm 5 mph SE 60 - 62 9/23/2018 7:45:00 PM
I-695 at I-83 60 97 59 Rain Calm 7 mph NE 61 - 62 9/23/2018 7:45:00 PM
I-695 on FSK Bridge 61 100 61 Rain 4 mph 9 mph SE 61 - 61 9/23/2018 7:49:00 PM
I-70 at Fred-Wash Co. 58 100 58 Rain Calm Calm NE 59 - 61 9/23/2018 7:45:00 PM
I-70 at I-695 60 99 60 Rain Calm 4 mph E 61 - 63 9/23/2018 7:45:00 PM
I-70 at I-81 60 100 60 None Calm 4 mph N 62 - 62 9/23/2018 7:45:00 PM
I-70 at MD-27 59 100 59 Rain Calm 4 mph N 60 - 61 9/23/2018 7:45:00 PM
I-70 at MD-32 59 99 59 Rain Calm Calm NW 62 - 63 9/23/2018 7:45:00 PM
I-83 at MD-137 60 100 60 Rain Calm 4 mph N 62 - 62 9/23/2018 7:45:00 PM
I-95 at I-695 NE 61 96 60 Rain Calm Calm NE 61 - 63 9/23/2018 7:49:00 PM
I-95 at Patuxent River 61 100 61 Rain Calm 8 mph NE 62 - 63 9/23/2018 7:45:00 PM
I-95 at Tydings Bridge 59 97 58 Rain Calm Calm W 61 - 62 9/23/2018 7:45:00 PM
I-95/495 at I-295 65 92 62 Rain Calm 7 mph N 63 - 63 9/23/2018 7:45:00 PM
I-97 at MD-100 60 98 60 Rain 4 mph 8 mph NE 62 - 63 9/23/2018 7:45:00 PM
I-97 at MD-32 60 97 59 None Calm 7 mph N 62 - 63 9/23/2018 7:45:00 PM
IS 70 W of I-270 - - - No Data Available - - No Data Available 63 - 63 9/23/2018 7:45:00 PM
MD 136 @ MD 646 59 100 59 No Data Available Calm 7 mph NE 63 - 63 9/23/2018 7:45:00 PM
MD 20 at MD 21 61 96 60 None Calm 7 mph S 64 - 64 9/23/2018 7:45:00 PM
MD 23 at Meadowtree Road 58 100 58 No Data Available Calm Calm NW 62 - 62 9/23/2018 7:45:00 PM
MD 231 at Patuxent River 64 99 64 None 14 mph 18 mph NE 64 - 66 9/23/2018 7:45:00 PM
MD 24 at Jarrettsville Road 59 100 59 No Data Available Calm Calm E 63 - 63 9/23/2018 7:45:00 PM
MD 260 at Cox Rd 62 98 62 Rain Calm 10 mph NE 66 - 66 9/23/2018 7:45:00 PM
MD-135 at Salt Dome 51 100 51 Rain 6 mph 11 mph SE 57 - 57 9/23/2018 7:45:00 PM
MD-140 at MD-97 59 100 59 Rain Calm 5 mph NE 60 - 61 9/23/2018 7:45:00 PM
MD-200 EB at Bonifant Rd - - - No Data Available - - No Data Available -
MD-200 WB at Muncaster Mill Rd 59 97 59 Rain Calm 5 mph N 61 - 64 9/23/2018 7:49:00 PM
MD-213 at Sassafras River 62 100 62 None Calm Calm E 64 - 64 9/23/2018 7:45:00 PM
MD-24 at Rock St Park 60 100 60 Rain Calm Calm N 63 - 63 9/23/2018 7:45:00 PM
MD-30 at PA Line 58 100 58 None Calm Calm NE 62 - 62 9/23/2018 7:45:00 PM
MD-33 at Knapps Narrows Drawbridge 61 97 60 Rain 9 mph 13 mph NE 65 - 65 9/23/2018 7:45:00 PM
MD-344 at MD-224 62 99 62 None Calm 9 mph N 67 - 67 9/23/2018 7:45:00 PM
MD-4 at Patuxent River 64 100 64 None 6 mph 12 mph NE 64 - 66 9/23/2018 7:48:00 PM
MD-404 at Choptank River 61 95 60 Rain 6 mph 13 mph NE 62 - 64 9/23/2018 7:45:00 PM
MD-43 at MD-150 61 100 61 Rain 6 mph 10 mph NE 62 - 63 9/23/2018 7:45:00 PM
MD-51 at Oldtown Salt Dome 58 99 58 Rain Calm 4 mph E 63 - 63 9/23/2018 7:45:00 PM
MD-64 at MD-418 59 99 59 None 4 mph 7 mph N 63 - 64 9/23/2018 7:45:00 PM
US 301 at MD 305 61 96 60 None 4 mph 9 mph N 64 - 65 9/23/2018 7:45:00 PM
US-1 at Baltimore / Harford Co. Line 60 97 59 Rain Calm Calm N 62 - 63 9/23/2018 7:45:00 PM
US-1 at Conowingo Dam 60 100 60 Rain Calm Calm N 64 - 64 9/23/2018 7:45:00 PM
US-13 at US-113 67 96 66 None 5 mph 10 mph N 72 - 72 9/23/2018 7:45:00 PM
US-13 at US-50 63 95 62 Rain 4 mph 10 mph NE 66 - 66 9/23/2018 7:45:00 PM
US-15 at MD-140 59 98 59 Rain Calm Calm W 60 - 62 9/23/2018 7:45:00 PM
US-301 at MD-5 61 100 61 Rain 5 mph 9 mph N 64 - 64 9/23/2018 7:45:00 PM
US-301 at Potomac 68 88 65 None Calm 6 mph N 63 - 63 9/23/2018 7:49:00 PM
US-340 at MD-180 58 100 58 Rain Calm 4 mph N 61 - 62 9/23/2018 7:45:00 PM
US-50 at Choptank 61 100 61 None 4 mph 12 mph N 63 - 64 9/23/2018 7:45:00 PM
US-50 at I-95 61 100 61 Rain Calm 6 mph N 62 - 64 9/23/2018 7:45:00 PM
US-50 at MD-2 62 100 62 None Calm 8 mph NW 63 - 64 9/23/2018 7:45:00 PM
US-50 at MD-331 63 94 61 None 5 mph 11 mph NE 63 - 64 9/23/2018 7:45:00 PM
US-50 at OC Drawbridge 70 96 69 None 20 mph 28 mph NE 73 - 73 9/23/2018 7:45:00 PM
US-50 at Table Rock Rd 52 100 52 None 11 mph 17 mph E 55 - 55 9/23/2018 7:45:00 PM
US-50 Kent Narrow Bridge 63 100 63 None 8 mph 14 mph NE 63 - 65 9/23/2018 7:45:00 PM
WPL Pier 31 61 99 61 None 21 mph 24 mph NE 64 - 64 9/23/2018 7:49:00 PM
Location Air RH Dwp Precip Type Wind Speed Wind Gust Direction Pavement Temperature Date/Time